sensor_id;sensor_type;location;lat;lon;timestamp;pressure;altitude;pressure_sealevel;temperature;humidity
59104;BME280;51449;51.676;5.812;2022-11-15T00:02:26;100799.59;;;8.88;79.68
59104;BME280;51449;51.676;5.812;2022-11-15T00:05:06;100796.53;;;8.90;79.78
59104;BME280;51449;51.676;5.812;2022-11-15T00:07:47;100799.25;;;8.90;79.61
59104;BME280;51449;51.676;5.812;2022-11-15T00:10:35;100801.69;;;8.91;79.76
59104;BME280;51449;51.676;5.812;2022-11-15T00:13:16;100806.88;;;8.93;79.99
59104;BME280;51449;51.676;5.812;2022-11-15T00:15:58;100803.00;;;8.94;79.94
59104;BME280;51449;51.676;5.812;2022-11-15T00:18:40;100799.94;;;8.95;80.17
59104;BME280;51449;51.676;5.812;2022-11-15T00:21:28;100796.03;;;8.96;80.12
59104;BME280;51449;51.676;5.812;2022-11-15T00:24:09;100804.78;;;8.98;80.33
59104;BME280;51449;51.676;5.812;2022-11-15T00:26:50;100796.22;;;9.00;80.09
59104;BME280;51449;51.676;5.812;2022-11-15T00:29:30;100795.88;;;9.02;80.54
59104;BME280;51449;51.676;5.812;2022-11-15T00:32:10;100791.66;;;9.04;80.19
59104;BME280;51449;51.676;5.812;2022-11-15T00:34:51;100791.84;;;9.08;80.26
59104;BME280;51449;51.676;5.812;2022-11-15T00:37:32;100781.81;;;9.12;80.44
59104;BME280;51449;51.676;5.812;2022-11-15T00:40:13;100783.44;;;9.13;80.61
59104;BME280;51449;51.676;5.812;2022-11-15T00:42:54;100782.13;;;9.19;80.40
59104;BME280;51449;51.676;5.812;2022-11-15T00:45:34;100782.59;;;9.21;80.99
59104;BME280;51449;51.676;5.812;2022-11-15T00:48:15;100783.09;;;9.23;80.89
59104;BME280;51449;51.676;5.812;2022-11-15T00:50:55;100776.13;;;9.26;80.79
59104;BME280;51449;51.676;5.812;2022-11-15T00:53:37;100780.16;;;9.28;80.89
59104;BME280;51449;51.676;5.812;2022-11-15T00:56:17;100764.97;;;9.31;81.03
59104;BME280;51449;51.676;5.812;2022-11-15T00:58:58;100770.94;;;9.33;80.85
59104;BME280;51449;51.676;5.812;2022-11-15T01:01:38;100774.97;;;9.35;80.84
59104;BME280;51449;51.676;5.812;2022-11-15T01:04:19;100768.03;;;9.38;81.09
59104;BME280;51449;51.676;5.812;2022-11-15T01:06:59;100763.81;;;9.40;80.97
59104;BME280;51449;51.676;5.812;2022-11-15T01:09:40;100770.47;;;9.39;81.06
59104;BME280;51449;51.676;5.812;2022-11-15T01:12:20;100770.09;;;9.41;81.15
59104;BME280;51449;51.676;5.812;2022-11-15T01:15:00;100770.94;;;9.41;81.18
59104;BME280;51449;51.676;5.812;2022-11-15T01:17:41;100766.72;;;9.44;81.01
59104;BME280;51449;51.676;5.812;2022-11-15T01:20:21;100758.97;;;9.46;80.93
59104;BME280;51449;51.676;5.812;2022-11-15T01:23:01;100757.00;;;9.47;80.93
59104;BME280;51449;51.676;5.812;2022-11-15T01:25:42;100750.03;;;9.49;81.03
59104;BME280;51449;51.676;5.812;2022-11-15T01:28:22;100739.84;;;9.50;81.00
59104;BME280;51449;51.676;5.812;2022-11-15T01:31:05;100749.06;;;9.54;80.89
59104;BME280;51449;51.676;5.812;2022-11-15T01:33:48;100746.75;;;9.56;81.23
59104;BME280;51449;51.676;5.812;2022-11-15T01:36:28;100738.19;;;9.57;81.22
59104;BME280;51449;51.676;5.812;2022-11-15T01:39:09;100740.94;;;9.57;81.15
59104;BME280;51449;51.676;5.812;2022-11-15T01:41:49;100736.25;;;9.58;81.18
59104;BME280;51449;51.676;5.812;2022-11-15T01:44:50;100730.44;;;9.59;81.15
59104;BME280;51449;51.676;5.812;2022-11-15T01:47:36;100734.78;;;9.60;81.19
59104;BME280;51449;51.676;5.812;2022-11-15T01:50:26;100732.03;;;9.60;81.36
59104;BME280;51449;51.676;5.812;2022-11-15T01:53:11;100728.97;;;9.62;81.38
59104;BME280;51449;51.676;5.812;2022-11-15T01:55:53;100724.25;;;9.62;81.34
59104;BME280;51449;51.676;5.812;2022-11-15T01:58:35;100730.25;;;9.64;81.21
59104;BME280;51449;51.676;5.812;2022-11-15T02:01:16;100735.44;;;9.66;81.23
59104;BME280;51449;51.676;5.812;2022-11-15T02:04:00;100723.28;;;9.67;81.41
59104;BME280;51449;51.676;5.812;2022-11-15T02:06:48;100724.91;;;9.68;81.29
59104;BME280;51449;51.676;5.812;2022-11-15T02:09:29;100726.50;;;9.69;81.51
59104;BME280;51449;51.676;5.812;2022-11-15T02:12:10;100725.34;;;9.70;81.29
59104;BME280;51449;51.676;5.812;2022-11-15T02:14:56;100717.09;;;9.70;81.32
59104;BME280;51449;51.676;5.812;2022-11-15T02:18:02;100719.22;;;9.73;81.57
59104;BME280;51449;51.676;5.812;2022-11-15T02:21:01;100720.81;;;9.74;81.46
59104;BME280;51449;51.676;5.812;2022-11-15T02:24:16;100713.84;;;9.77;81.40
59104;BME280;51449;51.676;5.812;2022-11-15T02:30:44;100697.16;;;9.82;81.48
59104;BME280;51449;51.676;5.812;2022-11-15T02:33:54;100693.72;;;9.85;81.77
59104;BME280;51449;51.676;5.812;2022-11-15T02:37:11;100688.38;;;9.89;81.87
59104;BME280;51449;51.676;5.812;2022-11-15T02:43:45;100694.97;;;9.96;82.01
59104;BME280;51449;51.676;5.812;2022-11-15T02:46:54;100695.94;;;10.00;82.41
59104;BME280;51449;51.676;5.812;2022-11-15T02:49:58;100697.31;;;10.06;82.63
59104;BME280;51449;51.676;5.812;2022-11-15T02:52:43;100696.81;;;10.13;82.70
59104;BME280;51449;51.676;5.812;2022-11-15T02:55:35;100692.25;;;10.17;82.62
59104;BME280;51449;51.676;5.812;2022-11-15T03:07:57;100679.94;;;10.44;85.26
59104;BME280;51449;51.676;5.812;2022-11-15T03:10:52;100678.25;;;10.52;85.61
59104;BME280;51449;51.676;5.812;2022-11-15T03:13:58;100679.31;;;10.60;86.09
59104;BME280;51449;51.676;5.812;2022-11-15T03:19:47;100664.00;;;10.71;86.12
59104;BME280;51449;51.676;5.812;2022-11-15T03:22:37;100664.91;;;10.75;86.22
59104;BME280;51449;51.676;5.812;2022-11-15T03:25:24;100667.47;;;10.80;86.25
59104;BME280;51449;51.676;5.812;2022-11-15T03:28:10;100665.31;;;10.86;86.25
59104;BME280;51449;51.676;5.812;2022-11-15T03:30:58;100658.78;;;10.90;86.01
59104;BME280;51449;51.676;5.812;2022-11-15T03:34:04;100664.88;;;10.96;85.97
59104;BME280;51449;51.676;5.812;2022-11-15T03:36:50;100664.19;;;10.99;86.58
59104;BME280;51449;51.676;5.812;2022-11-15T03:39:34;100667.88;;;11.03;86.63
59104;BME280;51449;51.676;5.812;2022-11-15T03:42:34;100672.38;;;11.08;86.81
59104;BME280;51449;51.676;5.812;2022-11-15T03:45:27;100670.88;;;11.10;86.68
59104;BME280;51449;51.676;5.812;2022-11-15T03:48:21;100670.19;;;11.13;87.18
59104;BME280;51449;51.676;5.812;2022-11-15T03:51:06;100667.91;;;11.16;87.40
59104;BME280;51449;51.676;5.812;2022-11-15T03:53:47;100668.84;;;11.20;87.12
59104;BME280;51449;51.676;5.812;2022-11-15T03:56:28;100668.94;;;11.23;86.99
59104;BME280;51449;51.676;5.812;2022-11-15T03:59:08;100664.69;;;11.26;86.93
59104;BME280;51449;51.676;5.812;2022-11-15T04:01:49;100667.47;;;11.26;87.01
59104;BME280;51449;51.676;5.812;2022-11-15T04:04:29;100673.91;;;11.30;87.32
59104;BME280;51449;51.676;5.812;2022-11-15T04:07:10;100668.41;;;11.30;87.56
59104;BME280;51449;51.676;5.812;2022-11-15T04:09:51;100675.19;;;11.32;87.82
59104;BME280;51449;51.676;5.812;2022-11-15T04:12:45;100676.91;;;11.37;88.11
59104;BME280;51449;51.676;5.812;2022-11-15T04:15:27;100668.75;;;11.41;88.25
59104;BME280;51449;51.676;5.812;2022-11-15T04:18:09;100672.75;;;11.43;88.16
59104;BME280;51449;51.676;5.812;2022-11-15T04:20:49;100667.38;;;11.47;87.97
59104;BME280;51449;51.676;5.812;2022-11-15T04:23:48;100668.97;;;11.48;88.32
59104;BME280;51449;51.676;5.812;2022-11-15T04:26:31;100671.88;;;11.51;87.86
59104;BME280;51449;51.676;5.812;2022-11-15T04:29:12;100667.63;;;11.54;88.07
59104;BME280;51449;51.676;5.812;2022-11-15T04:32:11;100678.28;;;11.55;87.66
59104;BME280;51449;51.676;5.812;2022-11-15T04:34:51;100677.97;;;11.57;87.92
59104;BME280;51449;51.676;5.812;2022-11-15T04:37:32;100677.63;;;11.59;88.01
59104;BME280;51449;51.676;5.812;2022-11-15T04:40:12;100668.66;;;11.62;88.05
59104;BME280;51449;51.676;5.812;2022-11-15T04:42:53;100676.22;;;11.65;87.85
59104;BME280;51449;51.676;5.812;2022-11-15T04:45:38;100666.00;;;11.65;87.26
59104;BME280;51449;51.676;5.812;2022-11-15T04:48:19;100660.13;;;11.67;87.47
59104;BME280;51449;51.676;5.812;2022-11-15T04:50:59;100668.09;;;11.68;87.09
59104;BME280;51449;51.676;5.812;2022-11-15T04:53:39;100657.84;;;11.69;87.05
59104;BME280;51449;51.676;5.812;2022-11-15T04:56:20;100664.16;;;11.69;86.97
59104;BME280;51449;51.676;5.812;2022-11-15T04:59:01;100662.19;;;11.70;86.80
59104;BME280;51449;51.676;5.812;2022-11-15T05:01:41;100661.75;;;11.68;86.38
59104;BME280;51449;51.676;5.812;2022-11-15T05:04:24;100662.56;;;11.68;86.52
59104;BME280;51449;51.676;5.812;2022-11-15T05:07:05;100658.97;;;11.68;86.36
59104;BME280;51449;51.676;5.812;2022-11-15T05:09:46;100654.63;;;11.67;86.39
59104;BME280;51449;51.676;5.812;2022-11-15T05:12:26;100657.38;;;11.67;86.42
59104;BME280;51449;51.676;5.812;2022-11-15T05:15:07;100667.63;;;11.66;86.24
59104;BME280;51449;51.676;5.812;2022-11-15T05:17:48;100658.88;;;11.64;86.26
59104;BME280;51449;51.676;5.812;2022-11-15T05:20:29;100663.59;;;11.64;86.22
59104;BME280;51449;51.676;5.812;2022-11-15T05:23:09;100656.44;;;11.63;86.05
59104;BME280;51449;51.676;5.812;2022-11-15T05:25:50;100673.38;;;11.61;85.88
59104;BME280;51449;51.676;5.812;2022-11-15T05:28:31;100672.53;;;11.61;86.23
59104;BME280;51449;51.676;5.812;2022-11-15T05:31:15;100663.47;;;11.60;85.71
59104;BME280;51449;51.676;5.812;2022-11-15T05:33:56;100669.34;;;11.59;85.93
59104;BME280;51449;51.676;5.812;2022-11-15T05:36:43;100662.19;;;11.57;86.17
59104;BME280;51449;51.676;5.812;2022-11-15T05:39:25;100661.41;;;11.57;85.92
59104;BME280;51449;51.676;5.812;2022-11-15T05:42:12;100657.84;;;11.56;85.99
59104;BME280;51449;51.676;5.812;2022-11-15T05:44:54;100657.84;;;11.56;86.05
59104;BME280;51449;51.676;5.812;2022-11-15T05:47:35;100655.41;;;11.55;85.85
59104;BME280;51449;51.676;5.812;2022-11-15T05:50:19;100662.09;;;11.54;86.03
59104;BME280;51449;51.676;5.812;2022-11-15T05:53:00;100653.03;;;11.53;85.90
59104;BME280;51449;51.676;5.812;2022-11-15T05:55:44;100654.16;;;11.52;86.01
59104;BME280;51449;51.676;5.812;2022-11-15T05:58:25;100661.31;;;11.53;86.03
59104;BME280;51449;51.676;5.812;2022-11-15T06:01:06;100659.66;;;11.52;86.26
59104;BME280;51449;51.676;5.812;2022-11-15T06:03:46;100657.72;;;11.53;86.20
59104;BME280;51449;51.676;5.812;2022-11-15T06:06:29;100653.81;;;11.54;85.95
59104;BME280;51449;51.676;5.812;2022-11-15T06:09:10;100657.38;;;11.54;86.11
59104;BME280;51449;51.676;5.812;2022-11-15T06:11:50;100666.13;;;11.56;86.17
59104;BME280;51449;51.676;5.812;2022-11-15T06:14:31;100672.78;;;11.55;86.03
59104;BME280;51449;51.676;5.812;2022-11-15T06:17:11;100671.19;;;11.54;86.18
59104;BME280;51449;51.676;5.812;2022-11-15T06:19:51;100668.41;;;11.54;86.20
59104;BME280;51449;51.676;5.812;2022-11-15T06:22:32;100666.47;;;11.55;86.19
59104;BME280;51449;51.676;5.812;2022-11-15T06:25:13;100660.59;;;11.56;85.98
59104;BME280;51449;51.676;5.812;2022-11-15T06:27:57;100663.81;;;11.59;85.97
59104;BME280;51449;51.676;5.812;2022-11-15T06:30:39;100659.44;;;11.57;86.22
59104;BME280;51449;51.676;5.812;2022-11-15T06:33:19;100672.91;;;11.59;86.21
59104;BME280;51449;51.676;5.812;2022-11-15T06:36:02;100673.69;;;11.60;86.01
59104;BME280;51449;51.676;5.812;2022-11-15T06:38:51;100664.97;;;11.57;85.96
59104;BME280;51449;51.676;5.812;2022-11-15T06:41:34;100674.88;;;11.59;86.20
59104;BME280;51449;51.676;5.812;2022-11-15T06:44:16;100673.25;;;11.57;86.35
59104;BME280;51449;51.676;5.812;2022-11-15T06:46:56;100678.75;;;11.57;86.80
59104;BME280;51449;51.676;5.812;2022-11-15T06:49:36;100687.03;;;11.57;87.16
59104;BME280;51449;51.676;5.812;2022-11-15T06:52:17;100681.50;;;11.57;87.28
59104;BME280;51449;51.676;5.812;2022-11-15T06:55:01;100691.06;;;11.60;87.17
59104;BME280;51449;51.676;5.812;2022-11-15T06:57:49;100686.81;;;11.63;87.51
59104;BME280;51449;51.676;5.812;2022-11-15T07:00:31;100698.66;;;11.63;87.35
59104;BME280;51449;51.676;5.812;2022-11-15T07:03:11;100706.13;;;11.63;87.50
59104;BME280;51449;51.676;5.812;2022-11-15T07:05:53;100703.72;;;11.61;88.12
59104;BME280;51449;51.676;5.812;2022-11-15T07:08:35;100701.75;;;11.62;88.52
59104;BME280;51449;51.676;5.812;2022-11-15T07:11:16;100701.44;;;11.63;88.64
59104;BME280;51449;51.676;5.812;2022-11-15T07:13:56;100706.13;;;11.63;88.76
59104;BME280;51449;51.676;5.812;2022-11-15T07:16:37;100694.75;;;11.64;88.92
59104;BME280;51449;51.676;5.812;2022-11-15T07:19:18;100703.03;;;11.64;88.97
59104;BME280;51449;51.676;5.812;2022-11-15T07:21:58;100710.28;;;11.69;89.17
59104;BME280;51449;51.676;5.812;2022-11-15T07:24:39;100705.56;;;11.69;88.71
59104;BME280;51449;51.676;5.812;2022-11-15T07:27:19;100697.63;;;11.68;88.83
59104;BME280;51449;51.676;5.812;2022-11-15T07:30:00;100709.00;;;11.66;88.87
59104;BME280;51449;51.676;5.812;2022-11-15T07:32:41;100701.06;;;11.65;89.00
59104;BME280;51449;51.676;5.812;2022-11-15T07:35:21;100704.28;;;11.67;88.90
59104;BME280;51449;51.676;5.812;2022-11-15T07:38:03;100718.56;;;11.69;88.63
59104;BME280;51449;51.676;5.812;2022-11-15T07:40:43;100717.75;;;11.68;88.76
59104;BME280;51449;51.676;5.812;2022-11-15T07:43:24;100720.84;;;11.67;89.19
59104;BME280;51449;51.676;5.812;2022-11-15T07:46:06;100724.09;;;11.69;88.94
59104;BME280;51449;51.676;5.812;2022-11-15T07:48:49;100720.53;;;11.68;88.96
59104;BME280;51449;51.676;5.812;2022-11-15T07:51:30;100724.53;;;11.71;88.84
59104;BME280;51449;51.676;5.812;2022-11-15T07:54:10;100717.06;;;11.71;88.62
59104;BME280;51449;51.676;5.812;2022-11-15T07:56:51;100719.94;;;11.75;88.71
59104;BME280;51449;51.676;5.812;2022-11-15T07:59:32;100715.25;;;11.75;88.50
59104;BME280;51449;51.676;5.812;2022-11-15T08:02:13;100716.50;;;11.78;88.78
59104;BME280;51449;51.676;5.812;2022-11-15T08:04:56;100704.28;;;11.79;88.53
59104;BME280;51449;51.676;5.812;2022-11-15T08:07:37;100715.00;;;11.81;88.68
59104;BME280;51449;51.676;5.812;2022-11-15T08:10:18;100713.03;;;11.81;88.80
59104;BME280;51449;51.676;5.812;2022-11-15T08:13:04;100711.88;;;11.82;88.62
59104;BME280;51449;51.676;5.812;2022-11-15T08:15:46;100709.81;;;11.79;88.92
59104;BME280;51449;51.676;5.812;2022-11-15T08:18:32;100712.13;;;11.77;88.75
59104;BME280;51449;51.676;5.812;2022-11-15T08:21:14;100714.06;;;11.76;88.88
59104;BME280;51449;51.676;5.812;2022-11-15T08:23:59;100709.34;;;11.77;89.15
59104;BME280;51449;51.676;5.812;2022-11-15T08:26:40;100707.41;;;11.77;88.87
59104;BME280;51449;51.676;5.812;2022-11-15T08:29:21;100709.34;;;11.77;88.80
59104;BME280;51449;51.676;5.812;2022-11-15T08:32:01;100713.97;;;11.73;88.80
59104;BME280;51449;51.676;5.812;2022-11-15T08:34:41;100714.63;;;11.70;89.02
59104;BME280;51449;51.676;5.812;2022-11-15T08:37:22;100719.25;;;11.66;89.13
59104;BME280;51449;51.676;5.812;2022-11-15T08:40:03;100711.31;;;11.64;88.82
59104;BME280;51449;51.676;5.812;2022-11-15T08:42:48;100719.25;;;11.66;88.72
59104;BME280;51449;51.676;5.812;2022-11-15T08:45:30;100719.25;;;11.66;89.01
59104;BME280;51449;51.676;5.812;2022-11-15T08:48:11;100723.16;;;11.65;88.93
59104;BME280;51449;51.676;5.812;2022-11-15T08:50:55;100716.81;;;11.64;88.94
59104;BME280;51449;51.676;5.812;2022-11-15T08:53:36;100705.78;;;11.64;88.92
59104;BME280;51449;51.676;5.812;2022-11-15T08:56:17;100703.81;;;11.65;88.63
59104;BME280;51449;51.676;5.812;2022-11-15T08:58:57;100701.53;;;11.67;88.45
59104;BME280;51449;51.676;5.812;2022-11-15T09:01:37;100696.59;;;11.72;88.29
59104;BME280;51449;51.676;5.812;2022-11-15T09:04:18;100695.91;;;11.75;88.33
59104;BME280;51449;51.676;5.812;2022-11-15T09:06:58;100696.00;;;11.79;88.01
59104;BME280;51449;51.676;5.812;2022-11-15T09:09:39;100685.91;;;11.83;87.94
59104;BME280;51449;51.676;5.812;2022-11-15T09:12:20;100686.50;;;11.89;87.94
59104;BME280;51449;51.676;5.812;2022-11-15T09:15:00;100692.13;;;11.92;87.92
59104;BME280;51449;51.676;5.812;2022-11-15T09:17:41;100687.53;;;11.96;87.80
59104;BME280;51449;51.676;5.812;2022-11-15T09:20:22;100691.22;;;12.01;87.54
59104;BME280;51449;51.676;5.812;2022-11-15T09:23:04;100681.09;;;12.05;87.40
59104;BME280;51449;51.676;5.812;2022-11-15T09:25:45;100680.84;;;12.10;87.27
59104;BME280;51449;51.676;5.812;2022-11-15T09:28:25;100683.72;;;12.13;86.98
59104;BME280;51449;51.676;5.812;2022-11-15T09:31:06;100673.91;;;12.16;86.57
59104;BME280;51449;51.676;5.812;2022-11-15T09:33:46;100673.59;;;12.17;86.37
59104;BME280;51449;51.676;5.812;2022-11-15T09:36:27;100675.75;;;12.24;86.18
59104;BME280;51449;51.676;5.812;2022-11-15T09:39:07;100666.88;;;12.31;86.11
59104;BME280;51449;51.676;5.812;2022-11-15T09:51:31;100662.31;;;12.51;84.53
59104;BME280;51449;51.676;5.812;2022-11-15T09:54:13;100659.53;;;12.51;83.84
59104;BME280;51449;51.676;5.812;2022-11-15T09:57:09;100658.41;;;12.52;83.13
59104;BME280;51449;51.676;5.812;2022-11-15T10:03:06;100641.13;;;12.55;81.81
59104;BME280;51449;51.676;5.812;2022-11-15T10:05:44;100643.16;;;12.58;81.37
59104;BME280;51449;51.676;5.812;2022-11-15T10:11:20;100638.66;;;12.66;80.67
59104;BME280;51449;51.676;5.812;2022-11-15T10:19:35;100636.28;;;12.80;79.39
59104;BME280;51449;51.676;5.812;2022-11-15T10:24:42;100630.19;;;12.74;76.35
59104;BME280;51449;51.676;5.812;2022-11-15T10:27:16;100626.38;;;12.79;76.60
59104;BME280;51449;51.676;5.812;2022-11-15T10:32:10;100610.59;;;12.79;74.98
59104;BME280;51449;51.676;5.812;2022-11-15T10:34:35;100608.19;;;12.78;74.14
59104;BME280;51449;51.676;5.812;2022-11-15T10:36:59;100603.91;;;12.80;73.51
59104;BME280;51449;51.676;5.812;2022-11-15T10:39:24;100603.28;;;12.87;73.54
59104;BME280;51449;51.676;5.812;2022-11-15T10:41:46;100605.44;;;12.94;73.39
59104;BME280;51449;51.676;5.812;2022-11-15T10:44:30;100616.63;;;12.97;72.36
59104;BME280;51449;51.676;5.812;2022-11-15T10:49:26;100599.19;;;12.97;71.02
59104;BME280;51449;51.676;5.812;2022-11-15T10:54:39;100592.06;;;12.96;70.64
59104;BME280;51449;51.676;5.812;2022-11-15T10:57:20;100574.56;;;12.92;70.39
59104;BME280;51449;51.676;5.812;2022-11-15T10:59:48;100583.94;;;12.87;70.01
59104;BME280;51449;51.676;5.812;2022-11-15T11:02:38;100589.47;;;12.87;69.46
59104;BME280;51449;51.676;5.812;2022-11-15T11:05:25;100580.38;;;12.87;69.47
59104;BME280;51449;51.676;5.812;2022-11-15T11:10:38;100570.28;;;12.94;69.56
59104;BME280;51449;51.676;5.812;2022-11-15T11:13:24;100584.22;;;12.98;69.82
59104;BME280;51449;51.676;5.812;2022-11-15T11:16:01;100576.56;;;13.07;69.87
59104;BME280;51449;51.676;5.812;2022-11-15T11:18:38;100579.22;;;13.19;70.61
59104;BME280;51449;51.676;5.812;2022-11-15T11:21:13;100572.25;;;13.25;69.56
59104;BME280;51449;51.676;5.812;2022-11-15T11:24:12;100558.91;;;13.27;69.10
59104;BME280;51449;51.676;5.812;2022-11-15T11:32:50;100566.81;;;13.45;69.54
59104;BME280;51449;51.676;5.812;2022-11-15T11:39:15;100550.16;;;13.41;68.14
59104;BME280;51449;51.676;5.812;2022-11-15T11:42:03;100547.78;;;13.43;68.80
59104;BME280;51449;51.676;5.812;2022-11-15T11:47:47;100539.94;;;13.45;68.18
59104;BME280;51449;51.676;5.812;2022-11-15T11:50:20;100531.19;;;13.43;67.73
59104;BME280;51449;51.676;5.812;2022-11-15T11:58:19;100502.94;;;13.34;66.31
59104;BME280;51449;51.676;5.812;2022-11-15T12:01:13;100509.28;;;13.35;66.41
59104;BME280;51449;51.676;5.812;2022-11-15T12:04:09;100498.25;;;13.38;66.59
59104;BME280;51449;51.676;5.812;2022-11-15T12:07:04;100494.41;;;13.43;66.31
59104;BME280;51449;51.676;5.812;2022-11-15T12:09:59;100504.06;;;13.49;66.20
59104;BME280;51449;51.676;5.812;2022-11-15T12:12:44;100493.94;;;13.57;66.47
59104;BME280;51449;51.676;5.812;2022-11-15T12:15:17;100483.75;;;13.61;66.10
59104;BME280;51449;51.676;5.812;2022-11-15T12:17:42;100492.22;;;13.68;66.27
59104;BME280;51449;51.676;5.812;2022-11-15T12:20:22;100470.56;;;13.74;65.71
59104;BME280;51449;51.676;5.812;2022-11-15T12:27:55;100449.16;;;13.90;66.35
59104;BME280;51449;51.676;5.812;2022-11-15T12:30:22;100442.50;;;13.95;65.74
59104;BME280;51449;51.676;5.812;2022-11-15T12:32:57;100437.09;;;14.02;65.92
59104;BME280;51449;51.676;5.812;2022-11-15T12:35:42;100430.84;;;14.05;65.18
59104;BME280;51449;51.676;5.812;2022-11-15T12:38:09;100428.84;;;14.05;65.23
59104;BME280;51449;51.676;5.812;2022-11-15T12:41:13;100430.88;;;14.08;64.70
59104;BME280;51449;51.676;5.812;2022-11-15T12:43:41;100427.31;;;14.08;63.87
59104;BME280;51449;51.676;5.812;2022-11-15T12:46:05;100422.94;;;14.07;64.07
59104;BME280;51449;51.676;5.812;2022-11-15T12:50:57;100414.28;;;14.08;63.29
59104;BME280;51449;51.676;5.812;2022-11-15T12:58:58;100412.25;;;14.05;63.60
59104;BME280;51449;51.676;5.812;2022-11-15T13:07:00;100391.09;;;13.97;63.46
59104;BME280;51449;51.676;5.812;2022-11-15T13:11:50;100374.72;;;13.88;63.45
59104;BME280;51449;51.676;5.812;2022-11-15T13:14:39;100376.63;;;13.84;63.30
59104;BME280;51449;51.676;5.812;2022-11-15T13:19:40;100363.47;;;13.78;63.36
59104;BME280;51449;51.676;5.812;2022-11-15T13:22:06;100370.16;;;13.77;63.42
59104;BME280;51449;51.676;5.812;2022-11-15T13:24:49;100359.09;;;13.77;63.43
59104;BME280;51449;51.676;5.812;2022-11-15T13:27:18;100360.75;;;13.81;63.55
59104;BME280;51449;51.676;5.812;2022-11-15T13:29:43;100348.09;;;13.80;63.24
59104;BME280;51449;51.676;5.812;2022-11-15T13:32:13;100352.81;;;13.80;63.25
59104;BME280;51449;51.676;5.812;2022-11-15T13:34:37;100345.31;;;13.80;63.61
59104;BME280;51449;51.676;5.812;2022-11-15T13:39:42;100336.19;;;13.80;63.43
59104;BME280;51449;51.676;5.812;2022-11-15T13:42:04;100329.06;;;13.79;62.93
59104;BME280;51449;51.676;5.812;2022-11-15T13:44:31;100329.41;;;13.77;63.21
59104;BME280;51449;51.676;5.812;2022-11-15T13:47:06;100318.72;;;13.76;63.39
59104;BME280;51449;51.676;5.812;2022-11-15T13:49:35;100316.66;;;13.73;63.37
59104;BME280;51449;51.676;5.812;2022-11-15T13:51:57;100319.03;;;13.70;63.44
59104;BME280;51449;51.676;5.812;2022-11-15T13:54:27;100313.06;;;13.68;63.34
59104;BME280;51449;51.676;5.812;2022-11-15T13:57:21;100315.38;;;13.66;63.29
59104;BME280;51449;51.676;5.812;2022-11-15T13:59:50;100312.94;;;13.61;63.36
59104;BME280;51449;51.676;5.812;2022-11-15T14:02:27;100300.25;;;13.60;63.03
59104;BME280;51449;51.676;5.812;2022-11-15T14:05:04;100296.63;;;13.56;62.64
59104;BME280;51449;51.676;5.812;2022-11-15T14:07:56;100293.84;;;13.56;63.24
59104;BME280;51449;51.676;5.812;2022-11-15T14:10:35;100292.22;;;13.55;63.26
59104;BME280;51449;51.676;5.812;2022-11-15T14:12:59;100293.41;;;13.54;63.09
59104;BME280;51449;51.676;5.812;2022-11-15T14:15:29;100285.03;;;13.51;62.53
59104;BME280;51449;51.676;5.812;2022-11-15T14:17:56;100278.25;;;13.48;62.53
59104;BME280;51449;51.676;5.812;2022-11-15T14:20:27;100275.06;;;13.46;62.33
59104;BME280;51449;51.676;5.812;2022-11-15T14:23:23;100280.19;;;13.44;62.87
59104;BME280;51449;51.676;5.812;2022-11-15T14:25:57;100277.03;;;13.45;62.87
59104;BME280;51449;51.676;5.812;2022-11-15T14:30:45;100257.97;;;13.40;63.11
59104;BME280;51449;51.676;5.812;2022-11-15T14:33:25;100255.94;;;13.37;62.77
59104;BME280;51449;51.676;5.812;2022-11-15T14:35:52;100255.81;;;13.30;62.36
59104;BME280;51449;51.676;5.812;2022-11-15T14:38:14;100250.19;;;13.26;62.42
59104;BME280;51449;51.676;5.812;2022-11-15T14:40:37;100251.34;;;13.25;62.60
59104;BME280;51449;51.676;5.812;2022-11-15T14:42:59;100242.59;;;13.23;62.85
59104;BME280;51449;51.676;5.812;2022-11-15T14:45:22;100239.38;;;13.21;62.49
59104;BME280;51449;51.676;5.812;2022-11-15T14:47:44;100236.22;;;13.19;62.35
59104;BME280;51449;51.676;5.812;2022-11-15T14:50:13;100227.47;;;13.17;62.66
59104;BME280;51449;51.676;5.812;2022-11-15T14:52:37;100224.28;;;13.15;62.84
59104;BME280;51449;51.676;5.812;2022-11-15T14:55:00;100221.06;;;13.13;62.17
59104;BME280;51449;51.676;5.812;2022-11-15T14:57:23;100213.06;;;13.08;62.54
59104;BME280;51449;51.676;5.812;2022-11-15T14:59:46;100206.22;;;13.02;62.46
59104;BME280;51449;51.676;5.812;2022-11-15T15:02:16;100198.75;;;13.02;62.52
59104;BME280;51449;51.676;5.812;2022-11-15T15:04:43;100196.34;;;13.01;62.41
59104;BME280;51449;51.676;5.812;2022-11-15T15:07:05;100194.00;;;13.03;62.44
59104;BME280;51449;51.676;5.812;2022-11-15T15:09:27;100198.75;;;13.02;62.71
59104;BME280;51449;51.676;5.812;2022-11-15T15:11:49;100190.81;;;13.01;62.79
59104;BME280;51449;51.676;5.812;2022-11-15T15:14:11;100182.06;;;12.99;62.38
59104;BME280;51449;51.676;5.812;2022-11-15T15:16:35;100179.31;;;12.99;62.63
59104;BME280;51449;51.676;5.812;2022-11-15T15:18:57;100178.06;;;12.96;62.50
59104;BME280;51449;51.676;5.812;2022-11-15T15:21:24;100175.66;;;12.95;62.70
59104;BME280;51449;51.676;5.812;2022-11-15T15:23:58;100167.31;;;12.91;62.75
59104;BME280;51449;51.676;5.812;2022-11-15T15:26:21;100163.75;;;12.91;62.85
59104;BME280;51449;51.676;5.812;2022-11-15T15:28:49;100160.91;;;12.87;62.35
59104;BME280;51449;51.676;5.812;2022-11-15T15:31:12;100154.97;;;12.85;62.68
59104;BME280;51449;51.676;5.812;2022-11-15T15:33:35;100156.91;;;12.84;62.95
59104;BME280;51449;51.676;5.812;2022-11-15T15:35:57;100149.44;;;12.85;63.18
59104;BME280;51449;51.676;5.812;2022-11-15T15:38:20;100147.81;;;12.84;63.04
59104;BME280;51449;51.676;5.812;2022-11-15T15:40:43;100147.81;;;12.84;63.38